Time;durP1;ratioP1;P1;durP2;ratioP2;P2;SDS_P1;SDS_P2;PMS_P1;PMS_P2;Temp;Humidity;BMP_temperature;BMP_pressure;BME280_temperature;BME280_humidity;BME280_pressure;Samples;Min_cycle;Max_cycle;Signal;HPM_P1;HPM_P2
2023/12/15 00:00:57;;;;;;;10.80;9.70;;;2.00;99.90;;;;;;5035144;28;20204;-76
2023/12/15 00:03:22;;;;;;;11.97;10.40;;;1.90;99.90;;;;;;5035593;28;20178;-76
2023/12/15 00:05:48;;;;;;;11.67;10.47;;;1.90;99.90;;;;;;5053129;28;20231;-76
2023/12/15 00:08:13;;;;;;;11.47;10.27;;;1.90;99.90;;;;;;5035293;28;20183;-76
2023/12/15 00:10:39;;;;;;;10.60;9.50;;;1.90;99.90;;;;;;5035247;28;20209;-76
2023/12/15 00:13:04;;;;;;;11.17;9.77;;;2.00;99.90;;;;;;5035944;28;20202;-76
2023/12/15 00:15:30;;;;;;;11.20;10.10;;;2.00;99.90;;;;;;5035252;28;20236;-76
2023/12/15 00:17:55;;;;;;;10.33;9.33;;;2.00;99.90;;;;;;5035938;28;20710;-76
2023/12/15 00:20:21;;;;;;;11.00;9.90;;;2.00;99.90;;;;;;5035101;28;20228;-76
2023/12/15 00:22:46;;;;;;;10.03;9.07;;;1.90;99.90;;;;;;5053083;28;20212;-76
2023/12/15 00:28:34;;;;;;;10.90;9.80;;;1.90;99.90;;;;;;5052749;28;20193;-76
2023/12/15 00:31:00;;;;;;;11.00;9.90;;;1.90;99.90;;;;;;5034969;28;20198;-76
2023/12/15 00:33:25;;;;;;;10.60;9.50;;;1.90;99.90;;;;;;5035175;28;20198;-76
2023/12/15 00:35:51;;;;;;;11.43;10.33;;;1.90;99.90;;;;;;5034926;28;20177;-76
2023/12/15 00:38:16;;;;;;;10.43;9.33;;;1.90;99.90;;;;;;5037927;28;20189;-76
2023/12/15 00:40:42;;;;;;;11.23;10.10;;;1.90;99.90;;;;;;5038419;28;20186;-76
2023/12/15 00:43:07;;;;;;;10.13;9.20;;;2.00;99.90;;;;;;5038487;28;20221;-76
2023/12/15 00:45:33;;;;;;;11.33;9.13;;;2.00;99.90;;;;;;5038382;28;20175;-76
2023/12/15 00:47:58;;;;;;;10.23;9.23;;;1.90;99.90;;;;;;5056417;28;20192;-76
2023/12/15 00:50:27;;;;;;;9.97;8.97;;;2.00;99.90;;;;;;5056102;28;20205;-76
2023/12/15 00:52:52;;;;;;;10.40;9.30;;;2.10;99.90;;;;;;5039125;28;20209;-76
2023/12/15 00:55:18;;;;;;;11.00;9.90;;;2.00;99.90;;;;;;5038174;28;20170;-76
2023/12/15 00:57:43;;;;;;;10.00;9.07;;;2.10;99.90;;;;;;5038137;28;20186;-76
2023/12/15 01:00:09;;;;;;;10.70;9.60;;;2.10;99.90;;;;;;5038041;28;20672;-76
2023/12/15 01:02:35;;;;;;;10.27;9.27;;;2.20;99.90;;;;;;5038148;28;20182;-76
2023/12/15 01:05:00;;;;;;;11.47;9.50;;;2.20;99.90;;;;;;5039121;28;20532;-76
2023/12/15 01:07:28;;;;;;;10.73;9.73;;;2.20;99.90;;;;;;5038450;28;20188;-76
2023/12/15 01:09:53;;;;;;;11.00;9.93;;;2.20;99.90;;;;;;5038441;28;20199;-76
2023/12/15 01:12:19;;;;;;;10.77;9.67;;;2.20;99.90;;;;;;5037781;28;20285;-76
2023/12/15 01:14:44;;;;;;;11.27;10.17;;;2.30;99.90;;;;;;5055605;28;20171;-76
2023/12/15 01:17:10;;;;;;;11.27;10.17;;;2.30;99.90;;;;;;5037956;28;20633;-76
2023/12/15 01:19:35;;;;;;;10.60;9.53;;;2.30;99.90;;;;;;5038207;28;20198;-77
2023/12/15 01:22:01;;;;;;;10.83;9.83;;;2.40;99.90;;;;;;5037776;28;20179;-77
2023/12/15 01:24:27;;;;;;;11.73;9.80;;;2.40;99.90;;;;;;5038467;28;20205;-77
2023/12/15 01:26:52;;;;;;;10.97;9.83;;;2.40;99.90;;;;;;5037955;28;20185;-77
2023/12/15 01:29:18;;;;;;;11.10;9.90;;;2.30;99.90;;;;;;5055232;28;20190;-77
2023/12/15 01:31:43;;;;;;;11.03;9.87;;;2.20;99.90;;;;;;5055372;28;20182;-77
2023/12/15 01:34:09;;;;;;;11.63;9.80;;;2.10;99.90;;;;;;5055236;28;20170;-77
2023/12/15 01:36:37;;;;;;;11.63;9.80;;;2.00;99.90;;;;;;5037556;28;20182;-77
2023/12/15 01:39:02;;;;;;;11.63;10.43;;;2.10;99.90;;;;;;5037276;28;20174;-77
2023/12/15 01:41:28;;;;;;;10.87;9.77;;;2.10;99.90;;;;;;5055072;28;20248;-77
2023/12/15 01:43:53;;;;;;;11.20;10.00;;;2.00;99.90;;;;;;5055528;28;20182;-77
2023/12/15 01:46:19;;;;;;;10.70;9.60;;;2.10;99.90;;;;;;5037416;28;20174;-77
2023/12/15 01:48:44;;;;;;;11.30;10.10;;;2.00;99.90;;;;;;5036675;28;20223;-76
2023/12/15 01:51:11;;;;;;;12.00;10.80;;;1.90;99.90;;;;;;5036992;28;20281;-76
2023/12/15 01:53:36;;;;;;;10.50;9.40;;;1.90;99.90;;;;;;5036910;28;20206;-76
2023/12/15 01:56:03;;;;;;;11.20;10.10;;;1.80;99.90;;;;;;5036928;28;20181;-75
2023/12/15 01:58:29;;;;;;;11.87;10.53;;;1.80;99.90;;;;;;5054542;28;20200;-75
2023/12/15 02:34:27;;;;;;;11.23;10.13;;;2.10;99.90;;;;;;5051325;28;20202;-76
2023/12/15 02:36:53;;;;;;;13.10;10.13;;;2.00;99.90;;;;;;5036299;28;20277;-76
2023/12/15 02:39:18;;;;;;;11.67;10.47;;;1.90;99.90;;;;;;5054302;28;20194;-76
2023/12/15 02:41:47;;;;;;;12.23;10.93;;;1.90;99.90;;;;;;5036263;28;20259;-76
2023/12/15 02:44:12;;;;;;;12.77;11.47;;;1.90;99.90;;;;;;5036540;28;20173;-76
2023/12/15 02:46:38;;;;;;;12.70;10.93;;;1.90;99.90;;;;;;5036193;28;20193;-76
2023/12/15 02:49:04;;;;;;;13.23;11.17;;;2.00;99.90;;;;;;5036103;28;20182;-76
2023/12/15 02:51:31;;;;;;;12.87;11.37;;;2.00;99.90;;;;;;5054431;28;20198;-76
2023/12/15 02:54:00;;;;;;;12.27;10.93;;;1.90;99.90;;;;;;5053709;28;20264;-76
2023/12/15 02:56:26;;;;;;;12.27;10.67;;;1.90;99.90;;;;;;5053725;28;20200;-76
2023/12/15 02:58:52;;;;;;;12.00;10.80;;;1.90;99.90;;;;;;5035887;28;20178;-76
2023/12/15 03:01:18;;;;;;;12.17;10.87;;;1.80;99.90;;;;;;5053289;28;20285;-76
2023/12/15 03:03:44;;;;;;;12.00;10.73;;;1.90;99.90;;;;;;5036741;28;20178;-76
2023/12/15 03:06:12;;;;;;;12.47;11.17;;;1.90;99.90;;;;;;5036628;28;20251;-76
2023/12/15 03:08:38;;;;;;;13.20;11.20;;;1.90;99.90;;;;;;5035688;28;20277;-76
2023/12/15 03:11:04;;;;;;;12.30;10.83;;;2.00;99.90;;;;;;5036723;28;20217;-76
2023/12/15 03:13:29;;;;;;;12.10;10.87;;;2.00;99.90;;;;;;5035765;28;20207;-76
2023/12/15 03:16:08;;;;;;;12.87;11.07;;;2.00;99.90;;;;;;5035657;28;20201;-76
2023/12/15 03:18:34;;;;;;;12.97;10.60;;;2.10;99.90;;;;;;5053416;28;20160;-76
2023/12/15 03:21:00;;;;;;;13.13;11.07;;;2.20;99.90;;;;;;5035839;28;20174;-76
2023/12/15 03:23:26;;;;;;;11.77;10.57;;;2.20;99.90;;;;;;5053356;28;20178;-76
2023/12/15 03:25:51;;;;;;;13.57;11.97;;;2.10;99.90;;;;;;5053371;28;20194;-76
2023/12/15 03:28:17;;;;;;;14.90;10.43;;;2.10;99.90;;;;;;5035472;28;20178;-76
2023/12/15 03:30:42;;;;;;;12.30;10.97;;;2.10;99.90;;;;;;5036124;28;20174;-76
2023/12/15 03:33:08;;;;;;;10.60;9.50;;;2.20;99.90;;;;;;5035271;28;20217;-76
2023/12/15 03:35:33;;;;;;;12.43;11.10;;;2.20;99.90;;;;;;5035403;28;20170;-76
2023/12/15 03:37:59;;;;;;;15.10;13.50;;;2.30;99.90;;;;;;5035947;28;20202;-76
2023/12/15 03:40:24;;;;;;;14.03;12.50;;;2.30;99.90;;;;;;5035776;28;20217;-76
2023/12/15 03:42:50;;;;;;;13.30;11.73;;;2.30;99.90;;;;;;5036085;28;20174;-76
2023/12/15 03:45:16;;;;;;;12.17;10.87;;;2.30;99.90;;;;;;5035574;28;20279;-76
2023/12/15 03:47:41;;;;;;;14.20;12.80;;;2.40;99.90;;;;;;5035224;28;20197;-76
2023/12/15 03:50:07;;;;;;;12.10;10.37;;;2.40;99.90;;;;;;5053067;28;20185;-76
2023/12/15 03:52:33;;;;;;;12.00;10.80;;;2.50;99.90;;;;;;5052848;28;20198;-76
2023/12/15 03:54:58;;;;;;;11.70;10.50;;;2.50;99.90;;;;;;5035233;28;20554;-76
2023/12/15 03:57:24;;;;;;;11.70;10.50;;;2.50;99.90;;;;;;5035028;28;20242;-76
2023/12/15 03:59:49;;;;;;;11.63;10.43;;;2.40;99.90;;;;;;5052980;28;20190;-76
2023/12/15 04:02:15;;;;;;;11.47;10.27;;;2.50;99.90;;;;;;5035098;28;20186;-76
2023/12/15 04:04:42;;;;;;;13.50;11.03;;;2.30;99.90;;;;;;5035340;28;20277;-76
2023/12/15 04:07:08;;;;;;;11.87;10.63;;;2.30;99.90;;;;;;5035842;28;20206;-76
2023/12/15 04:09:34;;;;;;;11.53;10.33;;;2.30;99.90;;;;;;5036156;28;20178;-77
2023/12/15 04:11:59;;;;;;;13.30;11.53;;;2.40;99.90;;;;;;5037206;28;20213;-77
2023/12/15 04:14:25;;;;;;;14.17;12.30;;;2.20;99.90;;;;;;5039481;28;20184;-77
2023/12/15 04:16:50;;;;;;;13.20;11.37;;;2.10;99.90;;;;;;5056968;28;20194;-77
2023/12/15 04:19:16;;;;;;;12.40;11.10;;;2.20;99.90;;;;;;5039815;28;20188;-77
2023/12/15 04:21:41;;;;;;;13.20;11.57;;;2.30;99.90;;;;;;5039357;28;20182;-77
2023/12/15 04:24:07;;;;;;;12.77;10.57;;;2.20;99.90;;;;;;5038989;28;20186;-77
2023/12/15 04:26:33;;;;;;;12.83;11.47;;;2.20;99.90;;;;;;5039642;28;20206;-77
2023/12/15 04:28:58;;;;;;;12.23;10.93;;;2.10;99.90;;;;;;5038979;28;20531;-77
2023/12/15 04:31:24;;;;;;;11.83;10.63;;;2.20;99.90;;;;;;5038698;28;20180;-77
2023/12/15 04:33:49;;;;;;;13.00;10.57;;;2.30;99.90;;;;;;5039103;28;20245;-77
2023/12/15 04:36:21;;;;;;;11.60;10.40;;;2.30;99.90;;;;;;5039431;28;20291;-77
2023/12/15 04:38:47;;;;;;;13.43;10.87;;;2.40;99.90;;;;;;5038516;28;20177;-77
2023/12/15 04:41:23;;;;;;;11.73;10.63;;;2.40;99.90;;;;;;5038387;28;20179;-77
2023/12/15 04:43:50;;;;;;;13.50;10.70;;;2.40;99.90;;;;;;5039294;28;20166;-77
2023/12/15 04:46:25;;;;;;;11.93;10.37;;;2.40;99.90;;;;;;5038613;28;20313;-76
2023/12/15 04:48:53;;;;;;;13.90;11.13;;;2.30;99.90;;;;;;5038222;28;20648;-76
2023/12/15 04:51:19;;;;;;;14.80;10.43;;;2.30;99.90;;;;;;5038192;28;20182;-76
2023/12/15 04:53:45;;;;;;;12.20;10.67;;;2.40;99.90;;;;;;5038843;28;20202;-76
2023/12/15 04:56:11;;;;;;;10.97;9.87;;;2.40;99.90;;;;;;5055838;28;20186;-76
2023/12/15 04:58:37;;;;;;;11.53;10.33;;;2.40;99.90;;;;;;5038818;28;20277;-76
2023/12/15 05:01:03;;;;;;;11.93;10.73;;;2.40;99.90;;;;;;5037957;28;20187;-75
2023/12/15 05:03:29;;;;;;;11.53;10.33;;;2.40;99.90;;;;;;5038618;28;20178;-75
2023/12/15 05:05:54;;;;;;;12.60;10.67;;;2.30;99.90;;;;;;5037922;28;20282;-75
2023/12/15 05:08:20;;;;;;;12.10;10.23;;;2.30;99.90;;;;;;5038115;28;20587;-75
2023/12/15 05:10:46;;;;;;;12.93;10.60;;;2.30;99.90;;;;;;5055630;28;20209;-75
2023/12/15 05:13:11;;;;;;;12.43;10.77;;;2.20;99.90;;;;;;5038838;28;20551;-75
2023/12/15 05:15:42;;;;;;;11.67;10.47;;;2.10;99.90;;;;;;5038463;28;20178;-75
2023/12/15 05:18:07;;;;;;;15.20;10.57;;;2.00;99.90;;;;;;5038155;28;20194;-75
2023/12/15 05:20:36;;;;;;;12.63;10.83;;;1.90;99.90;;;;;;5037639;28;20205;-75
2023/12/15 05:23:03;;;;;;;12.00;10.73;;;1.90;99.90;;;;;;5054562;28;20175;-75
2023/12/15 05:25:28;;;;;;;12.07;10.83;;;1.90;99.90;;;;;;5037735;28;20220;-75
2023/12/15 05:27:54;;;;;;;12.97;10.83;;;1.80;99.90;;;;;;5037407;28;20200;-75
2023/12/15 05:30:19;;;;;;;12.47;11.17;;;1.70;99.90;;;;;;5037765;28;20179;-75
2023/12/15 05:32:45;;;;;;;13.10;11.70;;;1.70;99.90;;;;;;5054983;28;20581;-75
2023/12/15 05:35:10;;;;;;;12.57;10.87;;;1.60;99.90;;;;;;5055417;28;20179;-75
2023/12/15 05:37:36;;;;;;;13.27;11.87;;;1.60;99.90;;;;;;5038187;28;20190;-76
2023/12/15 05:40:02;;;;;;;13.27;11.83;;;1.50;99.90;;;;;;5037257;28;20185;-76
2023/12/15 05:42:28;;;;;;;12.60;11.27;;;1.40;99.90;;;;;;5054991;28;20176;-75
2023/12/15 05:44:54;;;;;;;12.57;11.27;;;1.30;99.90;;;;;;5037197;28;20265;-75
2023/12/15 05:47:19;;;;;;;15.53;11.13;;;1.20;99.90;;;;;;5037422;28;20202;-75
2023/12/15 05:49:45;;;;;;;13.40;11.30;;;1.10;99.90;;;;;;5054856;28;20244;-75
2023/12/15 05:52:10;;;;;;;14.70;13.20;;;1.10;99.90;;;;;;5037331;28;20253;-75
2023/12/15 05:54:39;;;;;;;19.83;14.10;;;1.10;99.90;;;;;;5037372;28;20178;-75
2023/12/15 05:57:05;;;;;;;20.47;13.63;;;1.20;99.90;;;;;;5054806;28;20644;-77
2023/12/15 05:59:31;;;;;;;19.53;14.87;;;1.20;99.90;;;;;;5037238;28;20228;-75
2023/12/15 06:01:56;;;;;;;20.03;13.90;;;1.20;99.90;;;;;;5037161;28;20213;-75
2023/12/15 06:04:22;;;;;;;14.13;12.43;;;1.20;99.90;;;;;;5036763;28;20579;-75
2023/12/15 06:06:47;;;;;;;15.50;12.53;;;1.20;99.90;;;;;;5054694;28;20190;-75
2023/12/15 06:09:13;;;;;;;15.30;13.17;;;1.10;99.90;;;;;;5037168;28;20189;-75
2023/12/15 06:11:42;;;;;;;17.30;12.23;;;1.10;99.90;;;;;;5036825;28;20178;-75
2023/12/15 06:14:10;;;;;;;15.13;12.53;;;1.00;99.90;;;;;;5054673;28;20658;-75
2023/12/15 06:17:00;;;;;;;14.20;11.93;;;1.00;99.90;;;;;;5054727;28;20194;-75
2023/12/15 06:19:26;;;;;;;13.93;11.73;;;0.90;99.90;;;;;;5054709;28;20170;-75
2023/12/15 06:21:51;;;;;;;15.20;12.53;;;0.80;99.90;;;;;;5036820;28;20178;-76
2023/12/15 06:24:17;;;;;;;15.50;12.40;;;0.80;99.90;;;;;;5036570;28;20269;-77
2023/12/15 06:26:45;;;;;;;13.43;11.63;;;0.80;99.90;;;;;;5036407;28;20628;-76
2023/12/15 06:29:10;;;;;;;16.13;12.73;;;0.80;99.90;;;;;;5055889;28;20265;-76
2023/12/15 06:31:36;;;;;;;21.23;11.70;;;0.70;99.90;;;;;;5056252;28;20205;-76
2023/12/15 06:34:01;;;;;;;13.50;12.10;;;0.70;99.90;;;;;;5056146;28;20242;-76
2023/12/15 06:36:27;;;;;;;16.47;13.50;;;0.60;99.90;;;;;;5056738;28;20268;-76
2023/12/15 06:39:20;;;;;;;16.53;13.50;;;0.60;99.90;;;;;;5056137;28;20173;-77
2023/12/15 06:41:45;;;;;;;16.60;13.37;;;0.60;99.90;;;;;;5056896;28;20572;-77
2023/12/15 06:44:11;;;;;;;15.47;12.60;;;0.60;99.90;;;;;;5057822;28;20173;-76
2023/12/15 06:49:12;;;;;;;15.60;13.33;;;0.60;99.90;;;;;;5508693;23;20711;-76
2023/12/15 06:51:37;;;;;;;18.67;16.67;;;0.60;99.90;;;;;;5035411;28;20189;-75
2023/12/15 06:54:03;;;;;;;17.20;13.77;;;0.60;99.90;;;;;;5036010;28;20212;-75
2023/12/15 06:56:28;;;;;;;15.00;12.67;;;0.60;99.90;;;;;;5028213;28;20205;-75
2023/12/15 06:58:54;;;;;;;17.93;14.43;;;0.60;99.90;;;;;;5016973;28;20258;-75
2023/12/15 07:08:29;;;;;;;23.93;20.23;;;0.60;99.90;;;;;;5033763;28;20218;-76
2023/12/15 07:10:55;;;;;;;21.67;17.77;;;0.60;99.90;;;;;;5016746;28;20182;-76
2023/12/15 07:13:20;;;;;;;22.47;17.97;;;0.60;99.90;;;;;;5016224;28;20206;-75
2023/12/15 07:15:52;;;;;;;21.10;16.53;;;0.60;99.90;;;;;;5015968;28;20735;-75
2023/12/15 07:18:34;;;;;;;22.40;17.80;;;0.70;99.90;;;;;;5016719;28;20217;-76
2023/12/15 07:21:26;;;;;;;20.30;16.47;;;0.70;99.90;;;;;;5016174;28;20253;-76
2023/12/15 07:23:52;;;;;;;23.70;18.37;;;0.80;99.90;;;;;;5017175;28;20178;-76
2023/12/15 07:26:19;;;;;;;24.57;19.40;;;0.80;99.90;;;;;;5016120;28;20202;-76
2023/12/15 07:28:45;;;;;;;25.37;19.13;;;0.90;99.90;;;;;;5015924;28;20174;-76
2023/12/15 07:31:10;;;;;;;24.03;18.43;;;1.00;99.90;;;;;;5016260;28;20178;-77
2023/12/15 07:33:36;;;;;;;25.53;18.10;;;1.10;99.90;;;;;;5016614;28;20226;-77
2023/12/15 07:36:01;;;;;;;22.77;17.00;;;1.10;99.90;;;;;;5016169;28;20278;-76
2023/12/15 07:38:41;;;;;;;23.03;17.00;;;1.10;99.90;;;;;;5017239;28;20245;-77
2023/12/15 07:41:08;;;;;;;23.13;16.20;;;1.20;99.90;;;;;;5015916;28;20177;-80
2023/12/15 07:43:34;;;;;;;24.17;16.77;;;1.10;99.90;;;;;;5015783;28;20202;-76
2023/12/15 07:45:59;;;;;;;25.30;17.37;;;1.20;99.90;;;;;;5033453;28;20549;-75
2023/12/15 07:48:28;;;;;;;26.60;20.13;;;1.20;99.90;;;;;;5019481;28;20668;-76
2023/12/15 07:50:54;;;;;;;24.40;18.50;;;1.10;99.90;;;;;;5019836;28;20194;-76
2023/12/15 07:53:33;;;;;;;24.27;17.93;;;1.10;99.90;;;;;;5019576;28;20240;-76
2023/12/15 07:55:58;;;;;;;24.80;18.03;;;1.00;99.90;;;;;;5019771;28;20281;-76
2023/12/15 07:58:24;;;;;;;24.67;17.97;;;1.00;99.90;;;;;;5037645;28;20210;-76
2023/12/15 08:00:51;;;;;;;25.27;17.20;;;1.00;99.90;;;;;;5037242;28;20179;-76
2023/12/15 08:03:17;;;;;;;23.60;16.10;;;1.10;99.90;;;;;;5020534;28;20522;-75
2023/12/15 08:05:50;;;;;;;25.27;18.33;;;1.20;99.90;;;;;;5019246;28;20187;-76
2023/12/15 08:08:16;;;;;;;27.27;19.13;;;1.20;99.90;;;;;;5020007;28;20228;-76
2023/12/15 08:10:53;;;;;;;23.73;17.90;;;1.20;99.90;;;;;;5019999;28;20273;-76
2023/12/15 08:13:20;;;;;;;24.37;17.90;;;1.40;99.90;;;;;;5019385;28;20256;-76
2023/12/15 08:15:48;;;;;;;23.87;16.50;;;1.60;99.90;;;;;;5019305;28;20198;-76
2023/12/15 08:18:14;;;;;;;23.60;17.57;;;1.70;99.90;;;;;;5019530;28;20199;-76
2023/12/15 08:20:47;;;;;;;30.30;23.27;;;1.90;99.90;;;;;;5019426;28;20233;-76
2023/12/15 08:23:35;;;;;;;26.17;19.03;;;1.90;99.90;;;;;;5036965;28;20160;-77
2023/12/15 08:26:02;;;;;;;24.47;19.27;;;2.00;99.90;;;;;;5036091;28;20211;-76
2023/12/15 08:28:27;;;;;;;26.97;20.10;;;2.20;99.90;;;;;;5036504;28;20552;-76
2023/12/15 08:30:53;;;;;;;27.43;19.50;;;2.40;99.90;;;;;;5018907;28;20186;-76
2023/12/15 08:33:18;;;;;;;28.17;20.83;;;2.50;99.90;;;;;;5036595;28;20289;-76
2023/12/15 08:35:44;;;;;;;25.17;20.03;;;2.70;99.90;;;;;;5036622;28;20274;-76
2023/12/15 08:38:10;;;;;;;24.53;19.27;;;3.00;99.90;;;;;;5019571;28;20171;-76
2023/12/15 08:40:35;;;;;;;24.57;19.00;;;3.20;99.90;;;;;;5018841;28;20262;-76
2023/12/15 08:43:01;;;;;;;25.73;19.10;;;3.30;99.90;;;;;;5018720;28;20214;-77
2023/12/15 08:45:26;;;;;;;23.93;18.80;;;3.40;99.90;;;;;;5036422;28;20179;-77
2023/12/15 08:47:52;;;;;;;23.40;17.70;;;3.30;99.90;;;;;;5019172;28;20579;-77
2023/12/15 08:50:20;;;;;;;20.50;16.53;;;3.30;99.90;;;;;;5036535;28;20257;-77
2023/12/15 08:52:46;;;;;;;21.77;17.70;;;3.20;99.90;;;;;;5018736;28;20203;-75
2023/12/15 08:55:12;;;;;;;21.20;16.17;;;3.10;99.90;;;;;;5018454;28;20182;-76
2023/12/15 08:57:37;;;;;;;21.77;16.97;;;3.20;99.90;;;;;;5017353;28;20670;-77
2023/12/15 09:00:04;;;;;;;21.97;16.77;;;3.20;99.90;;;;;;5035784;28;20171;-76
2023/12/15 09:02:30;;;;;;;20.27;16.17;;;3.30;99.90;;;;;;5018246;28;20265;-76
2023/12/15 09:04:58;;;;;;;24.17;17.23;;;3.40;99.90;;;;;;5020930;28;20344;-76
2023/12/15 09:07:24;;;;;;;25.37;20.67;;;3.40;99.90;;;;;;5018143;28;20207;-77
2023/12/15 09:09:49;;;;;;;25.13;21.23;;;3.50;99.90;;;;;;5019423;28;20676;-76
2023/12/15 09:12:21;;;;;;;29.33;21.23;;;3.40;99.90;;;;;;5018212;28;20214;-76
2023/12/15 09:14:47;;;;;;;25.53;20.13;;;3.20;99.90;;;;;;5019384;28;20652;-76
2023/12/15 09:17:13;;;;;;;24.07;20.17;;;3.40;99.90;;;;;;5020616;28;20199;-77
2023/12/15 09:19:40;;;;;;;25.80;19.67;;;3.60;99.90;;;;;;5021090;28;20202;-76
2023/12/15 09:22:06;;;;;;;20.47;16.60;;;3.70;99.90;;;;;;5018182;28;20183;-76
2023/12/15 09:24:33;;;;;;;24.60;17.13;;;3.80;99.90;;;;;;5018648;28;20584;-76
2023/12/15 09:26:59;;;;;;;21.90;16.40;;;3.90;99.90;;;;;;5018207;28;20194;-76
2023/12/15 09:29:25;;;;;;;19.63;15.60;;;4.00;99.90;;;;;;5017899;28;20183;-75
2023/12/15 09:31:50;;;;;;;20.83;16.53;;;4.10;99.90;;;;;;5017893;28;20278;-76
2023/12/15 09:34:17;;;;;;;19.37;15.70;;;4.20;99.90;;;;;;5019016;28;20201;-76
2023/12/15 09:36:43;;;;;;;20.13;15.60;;;4.20;99.90;;;;;;5018773;28;20195;-77
2023/12/15 09:39:08;;;;;;;21.27;15.27;;;4.30;99.90;;;;;;5018592;28;20194;-77
2023/12/15 09:41:35;;;;;;;17.43;14.73;;;4.30;99.90;;;;;;5018283;28;20179;-77
2023/12/15 09:44:01;;;;;;;17.33;14.03;;;4.30;99.90;;;;;;5018133;28;20241;-77
2023/12/15 09:46:27;;;;;;;19.07;15.37;;;4.40;99.90;;;;;;5017569;28;20236;-77
2023/12/15 09:48:53;;;;;;;19.90;14.50;;;4.40;99.90;;;;;;5017243;28;20183;-76
2023/12/15 09:51:23;;;;;;;19.83;13.73;;;4.40;99.90;;;;;;5035553;28;20203;-76
2023/12/15 09:53:50;;;;;;;18.83;13.67;;;4.40;99.90;;;;;;5017590;28;20233;-76
2023/12/15 09:56:16;;;;;;;15.43;12.87;;;4.40;99.90;;;;;;5017220;28;20225;-76
2023/12/15 09:58:42;;;;;;;16.53;13.50;;;4.50;99.90;;;;;;5017417;28;20596;-76
2023/12/15 10:01:10;;;;;;;16.90;13.57;;;4.50;99.90;;;;;;5017847;28;20183;-76
2023/12/15 10:03:36;;;;;;;16.15;13.52;;;4.50;99.90;;;;;;5017918;28;20190;-76
2023/12/15 10:06:02;;;;;;;15.40;13.30;;;4.60;99.90;;;;;;5016872;28;20261;-76
2023/12/15 10:08:43;;;;;;;19.70;13.90;;;4.60;99.90;;;;;;5016772;28;20182;-76
2023/12/15 10:11:08;;;;;;;17.70;13.90;;;4.70;99.90;;;;;;5034459;28;20202;-76
2023/12/15 10:13:34;;;;;;;18.63;13.98;;;4.70;99.90;;;;;;5017117;28;20238;-77
2023/12/15 10:16:00;;;;;;;18.87;13.43;;;4.70;99.90;;;;;;5016927;28;20245;-77
2023/12/15 10:18:26;;;;;;;15.77;13.23;;;4.70;99.90;;;;;;5017375;28;20186;-78
2023/12/15 10:20:54;;;;;;;16.58;12.88;;;4.70;99.90;;;;;;5016756;28;20258;-77
2023/12/15 10:23:26;;;;;;;20.70;16.80;;;4.80;99.90;;;;;;5034555;28;20297;-77
2023/12/15 10:25:53;;;;;;;18.70;14.23;;;4.80;99.90;;;;;;5017280;28;20209;-77
2023/12/15 10:28:19;;;;;;;18.80;15.13;;;4.90;99.90;;;;;;5018017;28;20179;-77
2023/12/15 10:30:45;;;;;;;21.25;17.90;;;4.80;99.90;;;;;;5017029;28;20174;-77
2023/12/15 10:33:11;;;;;;;20.53;16.97;;;4.80;99.90;;;;;;5034443;28;20197;-77
2023/12/15 10:35:37;;;;;;;19.92;16.40;;;4.80;99.90;;;;;;5016422;28;20202;-76
2023/12/15 10:38:02;;;;;;;20.27;15.57;;;4.90;99.90;;;;;;5016780;28;20591;-76
2023/12/15 10:40:28;;;;;;;18.50;14.50;;;4.90;99.90;;;;;;5016738;28;20229;-76
2023/12/15 10:42:56;;;;;;;19.65;15.13;;;5.10;99.90;;;;;;5016399;28;20551;-76
2023/12/15 10:45:23;;;;;;;18.67;16.03;;;5.00;99.90;;;;;;5034077;28;20541;-75
2023/12/15 10:47:50;;;;;;;19.45;16.30;;;5.10;99.90;;;;;;5034012;28;20187;-76
2023/12/15 10:50:16;;;;;;;19.40;15.75;;;5.10;99.90;;;;;;5034098;28;20195;-76
2023/12/15 10:52:44;;;;;;;20.80;15.82;;;5.10;99.90;;;;;;5016556;28;20212;-76
2023/12/15 10:55:12;;;;;;;17.63;14.15;;;5.10;99.90;;;;;;5016247;28;20558;-77
2023/12/15 10:57:38;;;;;;;21.70;16.67;;;5.20;99.90;;;;;;5016023;28;20199;-77
2023/12/15 11:00:05;;;;;;;27.58;20.98;;;5.30;99.90;;;;;;5034300;28;20190;-77
2023/12/15 11:02:33;;;;;;;25.52;19.67;;;5.30;99.90;;;;;;5016188;28;20186;-77
2023/12/15 11:04:59;;;;;;;35.08;26.90;;;5.30;99.90;;;;;;5033653;28;20236;-77
2023/12/15 11:07:25;;;;;;;31.25;23.27;;;5.20;99.90;;;;;;5032730;28;20728;-77
2023/12/15 11:09:51;;;;;;;27.73;21.63;;;5.20;99.90;;;;;;5016511;28;20186;-77
2023/12/15 11:12:36;;;;;;;22.50;17.67;;;5.30;99.90;;;;;;5014516;28;20217;-77
2023/12/15 11:15:06;;;;;;;22.37;17.33;;;5.40;99.90;;;;;;5015919;28;20186;-77
2023/12/15 11:17:33;;;;;;;23.13;19.17;;;5.20;99.90;;;;;;5015780;28;20198;-77
2023/12/15 11:20:03;;;;;;;23.33;18.77;;;4.90;99.90;;;;;;5012580;28;20183;-77
2023/12/15 11:22:29;;;;;;;24.87;17.97;;;4.80;99.90;;;;;;4995794;28;20224;-77
2023/12/15 11:24:56;;;;;;;22.80;17.20;;;5.00;99.90;;;;;;5016084;28;20190;-77
2023/12/15 11:27:22;;;;;;;22.00;17.07;;;5.10;99.90;;;;;;5015356;28;20207;-77
2023/12/15 11:29:48;;;;;;;23.90;17.13;;;5.20;99.90;;;;;;5013475;28;20206;-76
2023/12/15 11:32:33;;;;;;;19.80;16.30;;;5.40;99.90;;;;;;5005735;28;20238;-77
2023/12/15 11:35:32;;;;;;;22.10;16.65;;;5.40;99.90;;;;;;4998046;28;20182;-77
2023/12/15 11:38:02;;;;;;;20.73;15.95;;;5.40;99.90;;;;;;5006694;28;20186;-77
2023/12/15 11:40:34;;;;;;;42.65;35.60;;;5.40;99.90;;;;;;5030380;28;20253;-77
2023/12/15 11:43:15;;;;;;;23.27;18.70;;;5.50;99.90;;;;;;5016324;28;20278;-77
2023/12/15 11:45:42;;;;;;;22.75;16.80;;;5.50;99.90;;;;;;5025001;28;20207;-77
2023/12/15 11:48:11;;;;;;;25.38;20.00;;;5.70;99.90;;;;;;4996109;28;20171;-77
2023/12/15 11:50:42;;;;;;;19.88;16.60;;;5.60;99.90;;;;;;4995576;28;20206;-77
2023/12/15 11:53:15;;;;;;;19.80;15.88;;;5.80;99.90;;;;;;4997392;28;20265;-77
2023/12/15 11:55:56;;;;;;;18.60;15.20;;;5.80;99.90;;;;;;5016076;28;20187;-77
2023/12/15 11:58:23;;;;;;;18.75;16.05;;;5.90;99.90;;;;;;4996093;28;20186;-77
2023/12/15 12:00:51;;;;;;;20.45;15.05;;;6.00;99.90;;;;;;4995962;28;20627;-77
2023/12/15 12:03:19;;;;;;;17.90;14.70;;;6.00;99.90;;;;;;4995921;28;20183;-77
2023/12/15 12:05:48;;;;;;;18.70;14.95;;;6.10;99.90;;;;;;5013255;28;20291;-77
2023/12/15 12:08:14;;;;;;;19.00;14.88;;;6.10;99.90;;;;;;4996088;28;20267;-77
2023/12/15 12:10:46;;;;;;;17.98;14.43;;;6.10;99.90;;;;;;4996061;28;20203;-77
2023/12/15 12:13:16;;;;;;;16.50;14.00;;;6.10;99.90;;;;;;4995300;28;20222;-76
2023/12/15 12:15:54;;;;;;;18.00;14.70;;;6.10;99.90;;;;;;4995557;28;20182;-76
2023/12/15 12:18:21;;;;;;;18.83;15.43;;;6.00;99.90;;;;;;4995696;28;20171;-76
2023/12/15 12:20:48;;;;;;;18.88;16.80;;;6.00;99.90;;;;;;4996368;28;20179;-75
2023/12/15 12:23:14;;;;;;;21.05;18.77;;;6.10;99.90;;;;;;4995541;28;20171;-75
2023/12/15 12:25:47;;;;;;;25.23;18.48;;;6.20;99.90;;;;;;4996068;28;20187;-76
2023/12/15 12:28:16;;;;;;;22.70;19.38;;;6.20;99.90;;;;;;4996327;28;20185;-76
2023/12/15 12:30:42;;;;;;;37.10;29.73;;;6.30;99.90;;;;;;4995765;28;20186;-76
2023/12/15 12:33:10;;;;;;;24.10;21.40;;;6.30;99.90;;;;;;4997656;28;20200;-76
2023/12/15 12:35:36;;;;;;;22.27;18.45;;;6.40;99.90;;;;;;4998988;28;20231;-76
2023/12/15 12:38:04;;;;;;;20.73;15.75;;;6.40;99.90;;;;;;4999328;28;20172;-76
2023/12/15 12:40:40;;;;;;;24.27;20.30;;;6.40;99.90;;;;;;4998988;28;20176;-76
2023/12/15 12:43:46;;;;;;;24.38;18.55;;;6.40;99.90;;;;;;4999215;28;20163;-75
2023/12/15 12:46:22;;;;;;;21.15;17.05;;;6.40;99.90;;;;;;4998635;28;20262;-76
2023/12/15 12:48:48;;;;;;;19.92;16.45;;;6.40;99.90;;;;;;4998102;28;20191;-76
2023/12/15 12:51:23;;;;;;;18.17;14.93;;;6.40;99.90;;;;;;4998874;28;20258;-76
2023/12/15 12:53:53;;;;;;;17.40;14.60;;;6.40;99.90;;;;;;4998818;28;20198;-76
2023/12/15 12:56:21;;;;;;;14.98;13.25;;;6.40;99.90;;;;;;4998919;28;20270;-76
2023/12/15 12:59:21;;;;;;;15.52;13.18;;;6.30;99.90;;;;;;4998800;28;20175;-76
2023/12/15 13:01:47;;;;;;;17.10;13.57;;;6.30;99.90;;;;;;4998479;28;20164;-76
2023/12/15 13:04:19;;;;;;;17.73;14.32;;;6.40;99.90;;;;;;4997872;28;20238;-76
2023/12/15 13:17:05;;;;;;;13.82;11.30;;;6.20;99.90;;;;;;5101070;23;20232;-76
2023/12/15 13:19:31;;;;;;;12.80;11.45;;;6.20;99.90;;;;;;5037841;28;20558;-76
2023/12/15 13:21:57;;;;;;;12.50;11.20;;;6.20;99.90;;;;;;5055734;28;20186;-76
2023/12/15 13:24:22;;;;;;;12.27;10.77;;;6.20;99.90;;;;;;5055606;28;20178;-76
2023/12/15 13:26:48;;;;;;;12.20;10.38;;;6.20;99.90;;;;;;5037690;28;20190;-76
2023/12/15 13:29:14;;;;;;;11.95;10.35;;;6.30;99.90;;;;;;5038307;28;20185;-76
2023/12/15 13:31:39;;;;;;;12.88;10.80;;;6.30;99.90;;;;;;5037816;28;20174;-76
2023/12/15 13:34:05;;;;;;;12.07;10.45;;;6.30;99.90;;;;;;5055975;28;20213;-76
2023/12/15 13:36:30;;;;;;;11.63;10.43;;;6.30;99.90;;;;;;5038757;28;20186;-77